Butler, Texas
Current Conditions -  °F | °C
As of 3:15 AM on Friday 19 Dec 2014 (Local Time) from KPSN Reporting Station
Light Rain Light Rain  
Wind Chill: 49°   Ceiling: 600
Heat Index: 49°   Visibility: 5mi
Dew Point: 48°   Wind: 0mph
Humidity: 95%   Direction: NA
Pressure: 30.12"   Gusts: NA
Location:  31.5818°N, 95.8921°W
Report Text: KPSN 190915Z AUTO 00000KT 5SM -RA BKN006 BKN075 OVC090 09/08 A3012 RMK AO2 T00970090
Loading
Personal Weather Stations






























Interactive Weather Map New forecast layout! Learn more

10-Day Weather Forecast

Advertisements
Track Severe Weather on mobile